Jesus Teran International Airport
MMAS : rendu visible

Aérodrome :











RETROUVEZ-NOUS SUR...

 
LOGIN :

S'inscrire | Disclaimer

   EN    FR    IT 

 









Légende :    VFR   VFR Marginal   IFR   IFR Intensif   IFR Très Intensif
Visi : 
Plafond : 
>= 8 km
>= 3000ft
5 à 8 km
1000 à 3000 ft
1500m à 5 km
500 à 1000 ft
800 à 1500m
200 à 500 ft
< 800m
< 200 ft
Symboles :   Orages  Brouillard  Fortes neiges  Fortes précipitations  Vent > 20 kt






- Altitude de l'aérodrome : 6112 ft
- Code IATA : AGU


MMAS - Jesus Teran International

DERNIER METAR :
  • 141955Z 24005KT 10SM SKC 23/M08 A3019

METARs EXPIRÉS :
  • 141843Z 18005KT 10SM SKC 22/M07 A3023
  • 141742Z 17006KT 10SM SKC 21/M09 A3027 RMK SLP121 5//// 9//

TAF TAF MMAS
Valide du 14 à 18h jusqu'au 15 à 18h UTC


141633Z 1418/1518 18005KT P6SM SKC
BECMG 1420/1421 21010KT
FM150200 23006KT P6SM SKC
BECMG 1505/1506 00000KT
FM151200 21006KT P6SM SKC



MET'MAP, la Météo Aéronautique d'un coup d'oeil ! - Copyright ORBIFLY Décembre 2007 - Disclaimer

ORBIFLY MET'MAP TEAM :

Programmation & Développement : Alexandra Zaïnal
Sur une idée originale de : Baudouin d'Aumeries
Assistance à la programmation : Marc-Olivier Méhu
Soutien technique & logistique : Manuel Goepfert

Contact : metmap@orbifly.com




SOURCES & CREDITS :

   NOAA       Earth
Advisory